sensor_id;sensor_type;location;lat;lon;timestamp;temperature;humidity
13416;DHT22;6779;50.150;8.680;2022-10-31T00:01:57;12.50;99.90
13416;DHT22;6779;50.150;8.680;2022-10-31T00:04:23;12.50;99.90
13416;DHT22;6779;50.150;8.680;2022-10-31T00:06:48;12.60;99.90
13416;DHT22;6779;50.150;8.680;2022-10-31T00:09:14;12.60;99.90
13416;DHT22;6779;50.150;8.680;2022-10-31T00:11:39;12.50;99.90
13416;DHT22;6779;50.150;8.680;2022-10-31T00:14:05;12.60;99.90
13416;DHT22;6779;50.150;8.680;2022-10-31T00:16:31;12.60;99.90
13416;DHT22;6779;50.150;8.680;2022-10-31T00:18:59;12.60;99.90
13416;DHT22;6779;50.150;8.680;2022-10-31T00:21:25;12.60;99.90
13416;DHT22;6779;50.150;8.680;2022-10-31T00:23:51;12.50;99.90
13416;DHT22;6779;50.150;8.680;2022-10-31T00:26:17;12.50;99.90
13416;DHT22;6779;50.150;8.680;2022-10-31T00:28:43;12.50;99.90
13416;DHT22;6779;50.150;8.680;2022-10-31T00:31:10;12.40;99.90
13416;DHT22;6779;50.150;8.680;2022-10-31T00:33:37;12.30;99.90
13416;DHT22;6779;50.150;8.680;2022-10-31T00:36:04;12.30;99.90
13416;DHT22;6779;50.150;8.680;2022-10-31T00:38:30;12.30;99.90
13416;DHT22;6779;50.150;8.680;2022-10-31T00:40:56;12.30;99.90
13416;DHT22;6779;50.150;8.680;2022-10-31T00:43:21;12.20;99.90
13416;DHT22;6779;50.150;8.680;2022-10-31T00:45:47;12.20;99.90
13416;DHT22;6779;50.150;8.680;2022-10-31T00:48:12;12.20;99.90
13416;DHT22;6779;50.150;8.680;2022-10-31T00:50:38;12.20;99.90
13416;DHT22;6779;50.150;8.680;2022-10-31T00:53:05;12.20;99.90
13416;DHT22;6779;50.150;8.680;2022-10-31T00:55:30;12.20;99.90
13416;DHT22;6779;50.150;8.680;2022-10-31T00:57:56;12.10;99.90
13416;DHT22;6779;50.150;8.680;2022-10-31T01:00:21;12.10;99.90
13416;DHT22;6779;50.150;8.680;2022-10-31T01:02:47;12.00;99.90
13416;DHT22;6779;50.150;8.680;2022-10-31T01:05:12;12.00;99.90
13416;DHT22;6779;50.150;8.680;2022-10-31T01:07:39;12.10;99.90
13416;DHT22;6779;50.150;8.680;2022-10-31T01:10:06;12.10;99.90
13416;DHT22;6779;50.150;8.680;2022-10-31T01:12:42;12.10;99.90
13416;DHT22;6779;50.150;8.680;2022-10-31T01:15:09;12.10;99.90
13416;DHT22;6779;50.150;8.680;2022-10-31T01:17:35;12.10;99.90
13416;DHT22;6779;50.150;8.680;2022-10-31T01:20:01;12.00;99.90
13416;DHT22;6779;50.150;8.680;2022-10-31T01:22:27;11.90;99.90
13416;DHT22;6779;50.150;8.680;2022-10-31T01:24:53;11.90;99.90
13416;DHT22;6779;50.150;8.680;2022-10-31T01:27:18;11.90;99.90
13416;DHT22;6779;50.150;8.680;2022-10-31T01:29:44;11.80;99.90
13416;DHT22;6779;50.150;8.680;2022-10-31T01:32:09;11.70;99.90
13416;DHT22;6779;50.150;8.680;2022-10-31T01:34:35;11.80;99.90
13416;DHT22;6779;50.150;8.680;2022-10-31T01:37:00;11.80;99.90
13416;DHT22;6779;50.150;8.680;2022-10-31T01:39:26;11.80;99.90
13416;DHT22;6779;50.150;8.680;2022-10-31T01:41:53;11.80;99.90
13416;DHT22;6779;50.150;8.680;2022-10-31T01:51:58;11.70;99.90
13416;DHT22;6779;50.150;8.680;2022-10-31T01:54:29;11.70;99.90
13416;DHT22;6779;50.150;8.680;2022-10-31T01:56:58;11.70;99.90
13416;DHT22;6779;50.150;8.680;2022-10-31T01:59:28;11.60;99.90
13416;DHT22;6779;50.150;8.680;2022-10-31T02:01:54;11.60;99.90
13416;DHT22;6779;50.150;8.680;2022-10-31T02:04:20;11.70;99.90
13416;DHT22;6779;50.150;8.680;2022-10-31T02:06:51;11.60;99.90
13416;DHT22;6779;50.150;8.680;2022-10-31T02:09:19;11.60;99.90
13416;DHT22;6779;50.150;8.680;2022-10-31T02:11:51;11.60;99.90
13416;DHT22;6779;50.150;8.680;2022-10-31T02:14:18;11.60;99.90
13416;DHT22;6779;50.150;8.680;2022-10-31T02:16:43;11.50;99.90
13416;DHT22;6779;50.150;8.680;2022-10-31T02:19:13;11.60;99.90
13416;DHT22;6779;50.150;8.680;2022-10-31T02:22:22;11.50;99.90
13416;DHT22;6779;50.150;8.680;2022-10-31T02:25:02;11.50;99.90
13416;DHT22;6779;50.150;8.680;2022-10-31T02:33:58;11.60;99.90
13416;DHT22;6779;50.150;8.680;2022-10-31T02:39:22;11.80;99.90
13416;DHT22;6779;50.150;8.680;2022-10-31T02:42:01;11.90;99.90
13416;DHT22;6779;50.150;8.680;2022-10-31T02:47:01;11.90;99.90
13416;DHT22;6779;50.150;8.680;2022-10-31T02:49:28;11.90;99.90
13416;DHT22;6779;50.150;8.680;2022-10-31T02:51:56;11.90;99.90
13416;DHT22;6779;50.150;8.680;2022-10-31T02:54:23;11.80;99.90
13416;DHT22;6779;50.150;8.680;2022-10-31T02:56:53;11.80;99.90
13416;DHT22;6779;50.150;8.680;2022-10-31T02:59:20;11.70;99.90
13416;DHT22;6779;50.150;8.680;2022-10-31T03:02:09;11.60;99.90
13416;DHT22;6779;50.150;8.680;2022-10-31T03:07:50;11.60;99.90
13416;DHT22;6779;50.150;8.680;2022-10-31T03:10:27;11.70;99.90
13416;DHT22;6779;50.150;8.680;2022-10-31T03:13:09;11.60;99.90
13416;DHT22;6779;50.150;8.680;2022-10-31T03:15:39;11.60;99.90
13416;DHT22;6779;50.150;8.680;2022-10-31T03:18:21;11.70;99.90
13416;DHT22;6779;50.150;8.680;2022-10-31T03:20:53;11.70;99.90
13416;DHT22;6779;50.150;8.680;2022-10-31T03:23:22;11.80;99.90
13416;DHT22;6779;50.150;8.680;2022-10-31T03:25:50;11.80;99.90
13416;DHT22;6779;50.150;8.680;2022-10-31T03:28:18;11.90;99.90
13416;DHT22;6779;50.150;8.680;2022-10-31T03:30:48;11.90;99.90
13416;DHT22;6779;50.150;8.680;2022-10-31T03:33:19;11.90;99.90
13416;DHT22;6779;50.150;8.680;2022-10-31T03:35:48;11.80;99.90
13416;DHT22;6779;50.150;8.680;2022-10-31T03:38:15;11.80;99.90
13416;DHT22;6779;50.150;8.680;2022-10-31T03:40:43;11.80;99.90
13416;DHT22;6779;50.150;8.680;2022-10-31T03:43:14;11.80;99.90
13416;DHT22;6779;50.150;8.680;2022-10-31T03:45:44;11.90;99.90
13416;DHT22;6779;50.150;8.680;2022-10-31T03:48:10;11.80;99.90
13416;DHT22;6779;50.150;8.680;2022-10-31T03:53:32;11.70;99.90
13416;DHT22;6779;50.150;8.680;2022-10-31T03:56:09;11.80;99.90
13416;DHT22;6779;50.150;8.680;2022-10-31T03:58:45;11.80;99.90
13416;DHT22;6779;50.150;8.680;2022-10-31T04:01:15;11.90;99.90
13416;DHT22;6779;50.150;8.680;2022-10-31T04:03:43;11.90;99.90
13416;DHT22;6779;50.150;8.680;2022-10-31T04:06:12;11.90;99.90
13416;DHT22;6779;50.150;8.680;2022-10-31T04:08:48;11.90;99.90
13416;DHT22;6779;50.150;8.680;2022-10-31T04:11:17;11.90;99.90
13416;DHT22;6779;50.150;8.680;2022-10-31T04:13:44;11.90;99.90
13416;DHT22;6779;50.150;8.680;2022-10-31T04:16:11;11.90;99.90
13416;DHT22;6779;50.150;8.680;2022-10-31T04:18:38;11.80;99.90
13416;DHT22;6779;50.150;8.680;2022-10-31T04:21:05;11.80;99.90
13416;DHT22;6779;50.150;8.680;2022-10-31T04:23:33;11.90;99.90
13416;DHT22;6779;50.150;8.680;2022-10-31T04:25:59;11.90;99.90
13416;DHT22;6779;50.150;8.680;2022-10-31T04:28:24;11.80;99.90
13416;DHT22;6779;50.150;8.680;2022-10-31T04:30:50;11.90;99.90
13416;DHT22;6779;50.150;8.680;2022-10-31T04:33:15;11.90;99.90
13416;DHT22;6779;50.150;8.680;2022-10-31T04:35:41;11.80;99.90
13416;DHT22;6779;50.150;8.680;2022-10-31T04:38:07;11.70;99.90
13416;DHT22;6779;50.150;8.680;2022-10-31T04:40:32;11.60;99.90
13416;DHT22;6779;50.150;8.680;2022-10-31T04:42:58;11.50;99.90
13416;DHT22;6779;50.150;8.680;2022-10-31T04:45:23;11.50;99.90
13416;DHT22;6779;50.150;8.680;2022-10-31T04:47:49;11.50;99.90
13416;DHT22;6779;50.150;8.680;2022-10-31T04:50:14;11.50;99.90
13416;DHT22;6779;50.150;8.680;2022-10-31T04:52:41;11.50;99.90
13416;DHT22;6779;50.150;8.680;2022-10-31T04:55:07;11.50;99.90
13416;DHT22;6779;50.150;8.680;2022-10-31T04:57:43;11.40;99.90
13416;DHT22;6779;50.150;8.680;2022-10-31T05:00:11;11.40;99.90
13416;DHT22;6779;50.150;8.680;2022-10-31T05:02:51;11.30;99.90
13416;DHT22;6779;50.150;8.680;2022-10-31T05:05:19;11.40;99.90
13416;DHT22;6779;50.150;8.680;2022-10-31T05:07:46;11.40;99.90
13416;DHT22;6779;50.150;8.680;2022-10-31T05:10:15;11.40;99.90
13416;DHT22;6779;50.150;8.680;2022-10-31T05:12:49;11.50;99.90
13416;DHT22;6779;50.150;8.680;2022-10-31T05:15:16;11.40;99.90
13416;DHT22;6779;50.150;8.680;2022-10-31T05:17:42;11.50;99.90
13416;DHT22;6779;50.150;8.680;2022-10-31T05:20:08;11.50;99.90
13416;DHT22;6779;50.150;8.680;2022-10-31T05:22:34;11.50;99.90
13416;DHT22;6779;50.150;8.680;2022-10-31T05:25:00;11.40;99.90
13416;DHT22;6779;50.150;8.680;2022-10-31T05:27:25;11.50;99.90
13416;DHT22;6779;50.150;8.680;2022-10-31T05:29:51;11.40;99.90
13416;DHT22;6779;50.150;8.680;2022-10-31T05:32:16;11.40;99.90
13416;DHT22;6779;50.150;8.680;2022-10-31T05:34:42;11.40;99.90
13416;DHT22;6779;50.150;8.680;2022-10-31T05:37:07;11.30;99.90
13416;DHT22;6779;50.150;8.680;2022-10-31T05:39:33;11.30;99.90
13416;DHT22;6779;50.150;8.680;2022-10-31T05:41:58;11.20;99.90
13416;DHT22;6779;50.150;8.680;2022-10-31T05:44:24;11.20;99.90
13416;DHT22;6779;50.150;8.680;2022-10-31T05:46:49;11.20;99.90
13416;DHT22;6779;50.150;8.680;2022-10-31T05:49:14;11.20;99.90
13416;DHT22;6779;50.150;8.680;2022-10-31T05:51:40;11.20;99.90
13416;DHT22;6779;50.150;8.680;2022-10-31T05:54:06;11.30;99.90
13416;DHT22;6779;50.150;8.680;2022-10-31T05:56:31;11.30;99.90
13416;DHT22;6779;50.150;8.680;2022-10-31T05:58:57;11.20;99.90
13416;DHT22;6779;50.150;8.680;2022-10-31T06:01:22;11.30;99.90
13416;DHT22;6779;50.150;8.680;2022-10-31T06:03:47;11.30;99.90
13416;DHT22;6779;50.150;8.680;2022-10-31T06:06:13;11.40;99.90
13416;DHT22;6779;50.150;8.680;2022-10-31T06:08:39;11.40;99.90
13416;DHT22;6779;50.150;8.680;2022-10-31T06:11:05;11.30;99.90
13416;DHT22;6779;50.150;8.680;2022-10-31T06:13:30;11.30;99.90
13416;DHT22;6779;50.150;8.680;2022-10-31T06:15:56;11.40;99.90
13416;DHT22;6779;50.150;8.680;2022-10-31T06:18:21;11.40;99.90
13416;DHT22;6779;50.150;8.680;2022-10-31T06:20:47;11.40;99.90
13416;DHT22;6779;50.150;8.680;2022-10-31T06:23:12;11.40;99.90
13416;DHT22;6779;50.150;8.680;2022-10-31T06:25:38;11.40;99.90
13416;DHT22;6779;50.150;8.680;2022-10-31T06:28:04;11.40;99.90
13416;DHT22;6779;50.150;8.680;2022-10-31T06:30:29;11.50;99.90
13416;DHT22;6779;50.150;8.680;2022-10-31T06:33:00;11.50;99.90
13416;DHT22;6779;50.150;8.680;2022-10-31T06:35:26;11.50;99.90
13416;DHT22;6779;50.150;8.680;2022-10-31T06:37:53;11.50;99.90
13416;DHT22;6779;50.150;8.680;2022-10-31T06:40:19;11.50;99.90
13416;DHT22;6779;50.150;8.680;2022-10-31T06:42:44;11.50;99.90
13416;DHT22;6779;50.150;8.680;2022-10-31T06:45:10;11.60;99.90
13416;DHT22;6779;50.150;8.680;2022-10-31T06:47:35;11.70;99.90
13416;DHT22;6779;50.150;8.680;2022-10-31T06:50:01;11.70;99.90
13416;DHT22;6779;50.150;8.680;2022-10-31T06:52:26;11.70;99.90
13416;DHT22;6779;50.150;8.680;2022-10-31T06:54:52;11.70;99.90
13416;DHT22;6779;50.150;8.680;2022-10-31T06:57:17;11.80;99.90
13416;DHT22;6779;50.150;8.680;2022-10-31T06:59:43;11.80;99.90
13416;DHT22;6779;50.150;8.680;2022-10-31T07:02:10;11.80;99.90
13416;DHT22;6779;50.150;8.680;2022-10-31T07:04:35;11.90;99.90
13416;DHT22;6779;50.150;8.680;2022-10-31T07:07:01;11.90;99.90
13416;DHT22;6779;50.150;8.680;2022-10-31T07:09:26;12.00;99.90
13416;DHT22;6779;50.150;8.680;2022-10-31T07:11:53;12.10;99.90
13416;DHT22;6779;50.150;8.680;2022-10-31T07:14:18;12.10;99.90
13416;DHT22;6779;50.150;8.680;2022-10-31T07:16:48;12.10;99.90
13416;DHT22;6779;50.150;8.680;2022-10-31T07:19:14;12.30;99.90
13416;DHT22;6779;50.150;8.680;2022-10-31T07:21:39;12.30;99.90
13416;DHT22;6779;50.150;8.680;2022-10-31T07:24:05;12.30;99.90
13416;DHT22;6779;50.150;8.680;2022-10-31T07:26:30;12.30;99.90
13416;DHT22;6779;50.150;8.680;2022-10-31T07:28:56;12.40;99.90
13416;DHT22;6779;50.150;8.680;2022-10-31T07:31:21;12.40;99.90
13416;DHT22;6779;50.150;8.680;2022-10-31T07:33:47;12.40;99.90
13416;DHT22;6779;50.150;8.680;2022-10-31T07:36:12;12.50;99.90
13416;DHT22;6779;50.150;8.680;2022-10-31T07:38:38;12.50;99.90
13416;DHT22;6779;50.150;8.680;2022-10-31T07:41:03;12.50;99.90
13416;DHT22;6779;50.150;8.680;2022-10-31T07:43:29;12.50;99.90
13416;DHT22;6779;50.150;8.680;2022-10-31T07:45:55;12.60;99.90
13416;DHT22;6779;50.150;8.680;2022-10-31T07:48:20;12.60;99.90
13416;DHT22;6779;50.150;8.680;2022-10-31T07:50:46;12.70;99.90
13416;DHT22;6779;50.150;8.680;2022-10-31T07:53:13;12.70;99.90
13416;DHT22;6779;50.150;8.680;2022-10-31T07:55:39;12.80;99.90
13416;DHT22;6779;50.150;8.680;2022-10-31T07:58:13;12.80;99.90
13416;DHT22;6779;50.150;8.680;2022-10-31T08:00:40;12.80;99.90
13416;DHT22;6779;50.150;8.680;2022-10-31T08:03:09;12.80;99.90
13416;DHT22;6779;50.150;8.680;2022-10-31T08:05:35;12.90;99.90
13416;DHT22;6779;50.150;8.680;2022-10-31T08:08:02;13.00;99.90
13416;DHT22;6779;50.150;8.680;2022-10-31T08:10:28;13.00;99.90
13416;DHT22;6779;50.150;8.680;2022-10-31T08:12:58;13.00;99.90
13416;DHT22;6779;50.150;8.680;2022-10-31T08:15:25;13.10;99.90
13416;DHT22;6779;50.150;8.680;2022-10-31T08:17:50;13.10;99.90
13416;DHT22;6779;50.150;8.680;2022-10-31T08:20:16;13.20;99.90
13416;DHT22;6779;50.150;8.680;2022-10-31T08:22:42;13.20;99.90
13416;DHT22;6779;50.150;8.680;2022-10-31T08:25:08;13.30;99.90
13416;DHT22;6779;50.150;8.680;2022-10-31T08:27:33;13.20;99.90
13416;DHT22;6779;50.150;8.680;2022-10-31T08:29:59;13.20;99.90
13416;DHT22;6779;50.150;8.680;2022-10-31T08:32:25;13.20;95.40
13416;DHT22;6779;50.150;8.680;2022-10-31T08:34:50;13.20;99.90
13416;DHT22;6779;50.150;8.680;2022-10-31T08:37:16;13.20;99.90
13416;DHT22;6779;50.150;8.680;2022-10-31T08:39:45;13.10;99.90
13416;DHT22;6779;50.150;8.680;2022-10-31T08:42:11;13.10;99.90
13416;DHT22;6779;50.150;8.680;2022-10-31T08:44:37;13.10;99.90
13416;DHT22;6779;50.150;8.680;2022-10-31T08:47:02;13.10;99.90
13416;DHT22;6779;50.150;8.680;2022-10-31T08:49:28;13.20;99.90
13416;DHT22;6779;50.150;8.680;2022-10-31T08:51:53;13.20;99.90
13416;DHT22;6779;50.150;8.680;2022-10-31T08:54:19;13.10;99.90
13416;DHT22;6779;50.150;8.680;2022-10-31T08:56:44;13.20;99.90
13416;DHT22;6779;50.150;8.680;2022-10-31T08:59:09;13.10;99.90
13416;DHT22;6779;50.150;8.680;2022-10-31T09:01:35;13.20;99.90
13416;DHT22;6779;50.150;8.680;2022-10-31T09:04:00;13.10;99.90
13416;DHT22;6779;50.150;8.680;2022-10-31T09:06:26;13.10;99.90
13416;DHT22;6779;50.150;8.680;2022-10-31T09:08:51;13.20;99.90
13416;DHT22;6779;50.150;8.680;2022-10-31T09:11:17;13.30;99.90
13416;DHT22;6779;50.150;8.680;2022-10-31T09:13:43;13.40;99.90
13416;DHT22;6779;50.150;8.680;2022-10-31T09:16:08;13.50;99.90
13416;DHT22;6779;50.150;8.680;2022-10-31T09:18:34;13.60;99.90
13416;DHT22;6779;50.150;8.680;2022-10-31T09:21:00;13.70;99.90
13416;DHT22;6779;50.150;8.680;2022-10-31T09:23:25;13.90;99.90
13416;DHT22;6779;50.150;8.680;2022-10-31T09:25:52;13.90;37.20
13416;DHT22;6779;50.150;8.680;2022-10-31T09:28:23;13.90;27.50
13416;DHT22;6779;50.150;8.680;2022-10-31T09:30:51;14.20;3.50
13416;DHT22;6779;50.150;8.680;2022-10-31T09:33:17;14.30;1.00
13416;DHT22;6779;50.150;8.680;2022-10-31T09:35:43;14.50;1.00
13416;DHT22;6779;50.150;8.680;2022-10-31T09:38:11;14.50;1.00
13416;DHT22;6779;50.150;8.680;2022-10-31T09:43:29;14.70;1.00
13416;DHT22;6779;50.150;8.680;2022-10-31T09:46:29;14.80;1.00
13416;DHT22;6779;50.150;8.680;2022-10-31T09:49:33;14.90;1.00
13416;DHT22;6779;50.150;8.680;2022-10-31T09:54:44;15.00;1.00
13416;DHT22;6779;50.150;8.680;2022-10-31T09:57:15;15.00;1.00
13416;DHT22;6779;50.150;8.680;2022-10-31T09:59:43;15.10;1.00
13416;DHT22;6779;50.150;8.680;2022-10-31T10:04:59;15.30;1.00
13416;DHT22;6779;50.150;8.680;2022-10-31T10:10:18;15.50;1.00
13416;DHT22;6779;50.150;8.680;2022-10-31T10:13:11;15.70;99.90
13416;DHT22;6779;50.150;8.680;2022-10-31T10:15:57;15.80;99.90
13416;DHT22;6779;50.150;8.680;2022-10-31T10:22:10;16.00;41.50
13416;DHT22;6779;50.150;8.680;2022-10-31T10:27:19;16.20;1.00
13416;DHT22;6779;50.150;8.680;2022-10-31T10:30:03;16.20;1.00
13416;DHT22;6779;50.150;8.680;2022-10-31T10:32:40;16.20;99.90
13416;DHT22;6779;50.150;8.680;2022-10-31T10:37:45;16.50;99.90
13416;DHT22;6779;50.150;8.680;2022-10-31T10:40:17;16.60;99.90
13416;DHT22;6779;50.150;8.680;2022-10-31T10:43:26;16.70;99.90
13416;DHT22;6779;50.150;8.680;2022-10-31T10:48:56;17.80;99.90
13416;DHT22;6779;50.150;8.680;2022-10-31T10:54:29;18.40;99.90
13416;DHT22;6779;50.150;8.680;2022-10-31T10:57:16;18.60;99.90
13416;DHT22;6779;50.150;8.680;2022-10-31T10:59:45;18.40;99.90
13416;DHT22;6779;50.150;8.680;2022-10-31T11:02:25;18.50;99.90
13416;DHT22;6779;50.150;8.680;2022-10-31T11:04:53;18.50;99.90
13416;DHT22;6779;50.150;8.680;2022-10-31T11:07:19;18.60;99.90
13416;DHT22;6779;50.150;8.680;2022-10-31T11:09:45;18.90;99.90
13416;DHT22;6779;50.150;8.680;2022-10-31T11:12:31;18.90;99.40
13416;DHT22;6779;50.150;8.680;2022-10-31T11:15:07;19.30;7.30
13416;DHT22;6779;50.150;8.680;2022-10-31T11:17:37;19.70;1.00
13416;DHT22;6779;50.150;8.680;2022-10-31T11:22:39;20.20;99.90
13416;DHT22;6779;50.150;8.680;2022-10-31T11:25:25;20.80;99.90
13416;DHT22;6779;50.150;8.680;2022-10-31T11:28:09;20.60;99.90
13416;DHT22;6779;50.150;8.680;2022-10-31T11:30:49;20.60;99.90
13416;DHT22;6779;50.150;8.680;2022-10-31T11:33:29;20.80;99.90
13416;DHT22;6779;50.150;8.680;2022-10-31T11:35:56;21.00;99.90
13416;DHT22;6779;50.150;8.680;2022-10-31T11:38:26;21.00;99.90
13416;DHT22;6779;50.150;8.680;2022-10-31T11:41:18;20.60;99.90
13416;DHT22;6779;50.150;8.680;2022-10-31T11:43:53;20.30;99.90
13416;DHT22;6779;50.150;8.680;2022-10-31T11:46:33;20.00;99.90
13416;DHT22;6779;50.150;8.680;2022-10-31T11:48:59;19.90;1.00
13416;DHT22;6779;50.150;8.680;2022-10-31T11:51:30;19.90;99.90
13416;DHT22;6779;50.150;8.680;2022-10-31T11:53:58;19.70;1.00
13416;DHT22;6779;50.150;8.680;2022-10-31T11:56:24;19.50;1.00
13416;DHT22;6779;50.150;8.680;2022-10-31T11:58:59;19.50;1.00
13416;DHT22;6779;50.150;8.680;2022-10-31T12:01:28;19.50;1.00
13416;DHT22;6779;50.150;8.680;2022-10-31T12:03:57;19.50;1.00
13416;DHT22;6779;50.150;8.680;2022-10-31T12:06:32;19.70;99.90
13416;DHT22;6779;50.150;8.680;2022-10-31T12:08:59;19.50;1.00
13416;DHT22;6779;50.150;8.680;2022-10-31T12:11:55;19.60;1.00
13416;DHT22;6779;50.150;8.680;2022-10-31T12:17:15;19.30;1.00
13416;DHT22;6779;50.150;8.680;2022-10-31T12:25:26;19.40;1.00
13416;DHT22;6779;50.150;8.680;2022-10-31T12:30:49;19.30;6.70
13416;DHT22;6779;50.150;8.680;2022-10-31T12:36:13;19.40;1.00
13416;DHT22;6779;50.150;8.680;2022-10-31T12:41:46;19.40;99.90
13416;DHT22;6779;50.150;8.680;2022-10-31T12:53:00;19.50;99.90
13416;DHT22;6779;50.150;8.680;2022-10-31T12:58:36;19.70;99.90
13416;DHT22;6779;50.150;8.680;2022-10-31T13:01:12;19.80;99.90
13416;DHT22;6779;50.150;8.680;2022-10-31T13:04:12;19.70;99.90
13416;DHT22;6779;50.150;8.680;2022-10-31T13:06:46;19.60;1.00
13416;DHT22;6779;50.150;8.680;2022-10-31T13:09:17;19.80;99.90
13416;DHT22;6779;50.150;8.680;2022-10-31T13:11:51;19.70;99.90
13416;DHT22;6779;50.150;8.680;2022-10-31T13:14:27;19.60;99.90
13416;DHT22;6779;50.150;8.680;2022-10-31T13:16:55;19.60;99.90
13416;DHT22;6779;50.150;8.680;2022-10-31T13:19:34;19.50;99.90
13416;DHT22;6779;50.150;8.680;2022-10-31T13:22:24;19.40;99.90
13416;DHT22;6779;50.150;8.680;2022-10-31T13:30:18;19.20;1.00
13416;DHT22;6779;50.150;8.680;2022-10-31T13:32:51;19.10;1.00
13416;DHT22;6779;50.150;8.680;2022-10-31T13:35:28;19.00;28.10
13416;DHT22;6779;50.150;8.680;2022-10-31T13:38:11;19.00;99.90
13416;DHT22;6779;50.150;8.680;2022-10-31T13:40:59;18.90;1.00
13416;DHT22;6779;50.150;8.680;2022-10-31T13:43:36;18.80;99.90
13416;DHT22;6779;50.150;8.680;2022-10-31T13:48:57;18.70;65.80
13416;DHT22;6779;50.150;8.680;2022-10-31T13:51:30;18.70;99.90
13416;DHT22;6779;50.150;8.680;2022-10-31T13:53:59;18.70;99.90
13416;DHT22;6779;50.150;8.680;2022-10-31T13:56:30;18.70;99.90
13416;DHT22;6779;50.150;8.680;2022-10-31T14:01:35;18.60;30.00
13416;DHT22;6779;50.150;8.680;2022-10-31T14:04:15;18.60;99.90
13416;DHT22;6779;50.150;8.680;2022-10-31T14:06:51;18.60;99.90
13416;DHT22;6779;50.150;8.680;2022-10-31T14:09:36;18.50;1.00
13416;DHT22;6779;50.150;8.680;2022-10-31T14:12:21;18.40;99.90
13416;DHT22;6779;50.150;8.680;2022-10-31T14:14:52;18.30;99.90
13416;DHT22;6779;50.150;8.680;2022-10-31T14:17:23;18.30;1.00
13416;DHT22;6779;50.150;8.680;2022-10-31T14:22:39;18.20;99.90
13416;DHT22;6779;50.150;8.680;2022-10-31T14:25:43;18.00;55.80
13416;DHT22;6779;50.150;8.680;2022-10-31T14:28:32;18.00;1.00
13416;DHT22;6779;50.150;8.680;2022-10-31T14:30:59;17.90;99.90
13416;DHT22;6779;50.150;8.680;2022-10-31T14:33:27;17.80;99.90
13416;DHT22;6779;50.150;8.680;2022-10-31T14:36:10;17.80;99.90
13416;DHT22;6779;50.150;8.680;2022-10-31T14:38:50;17.80;1.00
13416;DHT22;6779;50.150;8.680;2022-10-31T14:52:00;18.00;99.90
13416;DHT22;6779;50.150;8.680;2022-10-31T14:54:33;18.10;99.90
13416;DHT22;6779;50.150;8.680;2022-10-31T14:57:05;18.20;47.80
13416;DHT22;6779;50.150;8.680;2022-10-31T14:59:36;18.20;99.90
13416;DHT22;6779;50.150;8.680;2022-10-31T15:02:26;18.30;1.00
13416;DHT22;6779;50.150;8.680;2022-10-31T15:04:54;18.30;99.90
13416;DHT22;6779;50.150;8.680;2022-10-31T15:07:26;18.30;99.90
13416;DHT22;6779;50.150;8.680;2022-10-31T15:09:56;18.20;1.00
13416;DHT22;6779;50.150;8.680;2022-10-31T15:12:28;18.20;1.00
13416;DHT22;6779;50.150;8.680;2022-10-31T15:14:54;18.20;99.90
13416;DHT22;6779;50.150;8.680;2022-10-31T15:17:21;18.00;1.00
13416;DHT22;6779;50.150;8.680;2022-10-31T15:19:47;17.90;99.90
13416;DHT22;6779;50.150;8.680;2022-10-31T15:22:18;17.80;1.00
13416;DHT22;6779;50.150;8.680;2022-10-31T15:24:44;17.70;99.90
13416;DHT22;6779;50.150;8.680;2022-10-31T15:27:13;17.60;1.00
13416;DHT22;6779;50.150;8.680;2022-10-31T15:29:48;17.70;99.90
13416;DHT22;6779;50.150;8.680;2022-10-31T15:32:26;17.50;1.00
13416;DHT22;6779;50.150;8.680;2022-10-31T15:34:54;17.40;1.00
13416;DHT22;6779;50.150;8.680;2022-10-31T15:37:23;17.20;99.90
13416;DHT22;6779;50.150;8.680;2022-10-31T15:39:50;17.00;1.00
13416;DHT22;6779;50.150;8.680;2022-10-31T15:42:32;17.00;1.00
13416;DHT22;6779;50.150;8.680;2022-10-31T15:45:12;16.90;1.00
13416;DHT22;6779;50.150;8.680;2022-10-31T15:47:49;16.80;1.00
13416;DHT22;6779;50.150;8.680;2022-10-31T15:50:34;16.80;18.00
13416;DHT22;6779;50.150;8.680;2022-10-31T15:53:01;16.80;26.10
13416;DHT22;6779;50.150;8.680;2022-10-31T15:55:30;16.80;1.00
13416;DHT22;6779;50.150;8.680;2022-10-31T15:58:02;17.00;99.90
13416;DHT22;6779;50.150;8.680;2022-10-31T16:00:34;16.90;99.90
13416;DHT22;6779;50.150;8.680;2022-10-31T16:05:53;16.80;1.00
13416;DHT22;6779;50.150;8.680;2022-10-31T16:10:57;16.90;99.90
13416;DHT22;6779;50.150;8.680;2022-10-31T16:13:30;16.90;1.00
13416;DHT22;6779;50.150;8.680;2022-10-31T16:16:02;16.80;1.00
13416;DHT22;6779;50.150;8.680;2022-10-31T16:18:34;16.70;1.00
13416;DHT22;6779;50.150;8.680;2022-10-31T16:21:00;16.80;99.90
13416;DHT22;6779;50.150;8.680;2022-10-31T16:23:26;16.90;99.90
13416;DHT22;6779;50.150;8.680;2022-10-31T16:25:53;16.90;99.90
13416;DHT22;6779;50.150;8.680;2022-10-31T16:28:21;16.80;99.90
13416;DHT22;6779;50.150;8.680;2022-10-31T16:30:49;16.70;1.00
13416;DHT22;6779;50.150;8.680;2022-10-31T16:33:35;16.60;1.00
13416;DHT22;6779;50.150;8.680;2022-10-31T16:38:55;16.60;1.00
13416;DHT22;6779;50.150;8.680;2022-10-31T16:41:21;16.60;1.00
13416;DHT22;6779;50.150;8.680;2022-10-31T16:43:48;16.60;1.00
13416;DHT22;6779;50.150;8.680;2022-10-31T16:46:15;16.70;99.90
13416;DHT22;6779;50.150;8.680;2022-10-31T16:48:43;16.70;1.00
13416;DHT22;6779;50.150;8.680;2022-10-31T16:51:09;16.70;99.90
13416;DHT22;6779;50.150;8.680;2022-10-31T16:53:34;16.70;99.90
13416;DHT22;6779;50.150;8.680;2022-10-31T16:56:03;16.70;99.90
13416;DHT22;6779;50.150;8.680;2022-10-31T16:58:33;16.70;99.90
13416;DHT22;6779;50.150;8.680;2022-10-31T17:01:01;16.60;99.90
13416;DHT22;6779;50.150;8.680;2022-10-31T17:03:27;16.60;1.00
13416;DHT22;6779;50.150;8.680;2022-10-31T17:05:53;16.50;1.00
13416;DHT22;6779;50.150;8.680;2022-10-31T17:08:20;16.50;1.00
13416;DHT22;6779;50.150;8.680;2022-10-31T17:10:47;16.40;1.00
13416;DHT22;6779;50.150;8.680;2022-10-31T17:13:27;16.40;1.00
13416;DHT22;6779;50.150;8.680;2022-10-31T17:15:56;16.40;1.00
13416;DHT22;6779;50.150;8.680;2022-10-31T17:18:23;16.40;1.00
13416;DHT22;6779;50.150;8.680;2022-10-31T17:20:49;16.40;1.00
13416;DHT22;6779;50.150;8.680;2022-10-31T17:23:15;16.30;1.00
13416;DHT22;6779;50.150;8.680;2022-10-31T17:25:42;16.30;1.00
13416;DHT22;6779;50.150;8.680;2022-10-31T17:28:11;16.20;1.00
13416;DHT22;6779;50.150;8.680;2022-10-31T17:30:39;16.10;3.60
13416;DHT22;6779;50.150;8.680;2022-10-31T17:33:04;16.10;32.50
13416;DHT22;6779;50.150;8.680;2022-10-31T17:35:30;16.10;21.70
13416;DHT22;6779;50.150;8.680;2022-10-31T17:37:56;16.10;23.30
13416;DHT22;6779;50.150;8.680;2022-10-31T17:40:22;16.10;50.40
13416;DHT22;6779;50.150;8.680;2022-10-31T17:42:49;16.00;97.70
13416;DHT22;6779;50.150;8.680;2022-10-31T17:45:15;16.00;94.40
13416;DHT22;6779;50.150;8.680;2022-10-31T17:47:40;16.10;63.80
13416;DHT22;6779;50.150;8.680;2022-10-31T17:50:06;16.10;27.30
13416;DHT22;6779;50.150;8.680;2022-10-31T17:52:32;16.10;41.20
13416;DHT22;6779;50.150;8.680;2022-10-31T17:54:57;16.00;67.60
13416;DHT22;6779;50.150;8.680;2022-10-31T17:57:23;15.80;97.50
13416;DHT22;6779;50.150;8.680;2022-10-31T17:59:48;15.90;99.90
13416;DHT22;6779;50.150;8.680;2022-10-31T18:02:14;15.70;99.90